Hokes Bluff, Alabama
Current Conditions -  °F | °C
As of 8:55 PM on Thursday 27 Nov 2014 (Local Time) from KGAD Reporting Station
Clear Clear  
Wind Chill: 32°   Ceiling: Unl
Heat Index: 36°   Visibility: 10mi
Dew Point: 25°   Wind: 5mph
Humidity: 65%   Direction: 320°NW
Pressure: 30.43"   Gusts: NA
Location:  34.0158°N, 85.8342°W
Report Text: KGAD 280255Z 32004KT 10SM CLR 02/M04 A3043 RMK AO1 52010
Loading
Personal Weather Stations






























Interactive Weather Map New forecast layout! Learn more

10-Day Weather Forecast

Advertisements
Track Severe Weather on mobile